sensor_id;sensor_type;location;lat;lon;timestamp;P1;durP1;ratioP1;P2;durP2;ratioP2
22565;SDS011;11449;51.330;19.378;2022-10-31T00:00:51;85.67;;;43.00;;
22565;SDS011;11449;51.330;19.378;2022-10-31T00:05:54;82.05;;;43.55;;
22565;SDS011;11449;51.330;19.378;2022-10-31T00:10:55;84.00;;;39.03;;
22565;SDS011;11449;51.330;19.378;2022-10-31T00:15:56;81.00;;;39.60;;
22565;SDS011;11449;51.330;19.378;2022-10-31T00:21:00;84.83;;;36.38;;
22565;SDS011;11449;51.330;19.378;2022-10-31T00:26:02;80.85;;;39.60;;
22565;SDS011;11449;51.330;19.378;2022-10-31T00:31:04;94.60;;;40.75;;
22565;SDS011;11449;51.330;19.378;2022-10-31T00:36:06;69.87;;;34.23;;
22565;SDS011;11449;51.330;19.378;2022-10-31T00:41:08;67.22;;;34.00;;
22565;SDS011;11449;51.330;19.378;2022-10-31T00:46:10;69.77;;;32.30;;
22565;SDS011;11449;51.330;19.378;2022-10-31T00:51:11;121.72;;;49.30;;
22565;SDS011;11449;51.330;19.378;2022-10-31T00:56:13;214.15;;;61.45;;
22565;SDS011;11449;51.330;19.378;2022-10-31T01:01:14;213.32;;;64.42;;
22565;SDS011;11449;51.330;19.378;2022-10-31T01:06:15;236.68;;;56.20;;
22565;SDS011;11449;51.330;19.378;2022-10-31T01:11:18;185.43;;;45.70;;
22565;SDS011;11449;51.330;19.378;2022-10-31T01:16:21;190.03;;;39.78;;
22565;SDS011;11449;51.330;19.378;2022-10-31T01:21:25;116.05;;;35.88;;
22565;SDS011;11449;51.330;19.378;2022-10-31T01:26:27;169.65;;;31.02;;
22565;SDS011;11449;51.330;19.378;2022-10-31T01:31:30;143.43;;;32.60;;
22565;SDS011;11449;51.330;19.378;2022-10-31T01:36:32;126.85;;;33.02;;
22565;SDS011;11449;51.330;19.378;2022-10-31T01:41:34;128.07;;;31.95;;
22565;SDS011;11449;51.330;19.378;2022-10-31T01:46:38;67.67;;;29.48;;
22565;SDS011;11449;51.330;19.378;2022-10-31T01:51:41;60.92;;;27.75;;
22565;SDS011;11449;51.330;19.378;2022-10-31T01:56:44;67.55;;;29.55;;
22565;SDS011;11449;51.330;19.378;2022-10-31T02:01:47;108.70;;;28.12;;
22565;SDS011;11449;51.330;19.378;2022-10-31T02:06:57;196.45;;;34.70;;
22565;SDS011;11449;51.330;19.378;2022-10-31T02:11:59;213.12;;;30.65;;
22565;SDS011;11449;51.330;19.378;2022-10-31T02:17:00;67.55;;;28.27;;
22565;SDS011;11449;51.330;19.378;2022-10-31T02:22:09;120.37;;;28.17;;
22565;SDS011;11449;51.330;19.378;2022-10-31T02:27:13;183.97;;;30.68;;
22565;SDS011;11449;51.330;19.378;2022-10-31T02:32:16;161.35;;;47.20;;
22565;SDS011;11449;51.330;19.378;2022-10-31T02:37:19;83.78;;;27.00;;
22565;SDS011;11449;51.330;19.378;2022-10-31T02:47:42;58.83;;;25.65;;
22565;SDS011;11449;51.330;19.378;2022-10-31T02:52:43;52.10;;;25.05;;
22565;SDS011;11449;51.330;19.378;2022-10-31T02:57:44;57.43;;;27.65;;
22565;SDS011;11449;51.330;19.378;2022-10-31T03:02:57;188.03;;;32.90;;
22565;SDS011;11449;51.330;19.378;2022-10-31T03:23:29;119.77;;;33.50;;
22565;SDS011;11449;51.330;19.378;2022-10-31T03:28:33;117.05;;;32.50;;
22565;SDS011;11449;51.330;19.378;2022-10-31T03:33:36;81.87;;;30.52;;
22565;SDS011;11449;51.330;19.378;2022-10-31T03:38:36;117.53;;;32.63;;
22565;SDS011;11449;51.330;19.378;2022-10-31T03:43:42;118.00;;;31.50;;
22565;SDS011;11449;51.330;19.378;2022-10-31T03:48:41;99.07;;;27.80;;
22565;SDS011;11449;51.330;19.378;2022-10-31T03:53:53;58.60;;;28.12;;
22565;SDS011;11449;51.330;19.378;2022-10-31T03:59:07;95.32;;;30.00;;
22565;SDS011;11449;51.330;19.378;2022-10-31T04:04:05;91.47;;;30.12;;
22565;SDS011;11449;51.330;19.378;2022-10-31T04:09:07;76.67;;;29.30;;
22565;SDS011;11449;51.330;19.378;2022-10-31T04:14:09;72.35;;;30.85;;
22565;SDS011;11449;51.330;19.378;2022-10-31T04:19:12;75.12;;;29.27;;
22565;SDS011;11449;51.330;19.378;2022-10-31T04:24:14;58.25;;;28.30;;
22565;SDS011;11449;51.330;19.378;2022-10-31T04:29:16;60.33;;;28.38;;
22565;SDS011;11449;51.330;19.378;2022-10-31T04:34:17;176.27;;;32.70;;
22565;SDS011;11449;51.330;19.378;2022-10-31T04:39:18;175.00;;;32.38;;
22565;SDS011;11449;51.330;19.378;2022-10-31T04:44:21;73.87;;;30.57;;
22565;SDS011;11449;51.330;19.378;2022-10-31T04:49:24;105.45;;;31.05;;
22565;SDS011;11449;51.330;19.378;2022-10-31T04:54:25;74.05;;;27.82;;
22565;SDS011;11449;51.330;19.378;2022-10-31T04:59:33;120.80;;;31.80;;
22565;SDS011;11449;51.330;19.378;2022-10-31T05:04:34;74.95;;;30.40;;
22565;SDS011;11449;51.330;19.378;2022-10-31T05:09:36;145.68;;;30.30;;
22565;SDS011;11449;51.330;19.378;2022-10-31T05:14:37;123.62;;;29.15;;
22565;SDS011;11449;51.330;19.378;2022-10-31T05:25:17;140.03;;;32.05;;
22565;SDS011;11449;51.330;19.378;2022-10-31T05:30:20;226.47;;;34.25;;
22565;SDS011;11449;51.330;19.378;2022-10-31T05:35:23;77.20;;;25.60;;
22565;SDS011;11449;51.330;19.378;2022-10-31T05:40:44;142.72;;;25.77;;
22565;SDS011;11449;51.330;19.378;2022-10-31T05:45:45;99.00;;;27.75;;
22565;SDS011;11449;51.330;19.378;2022-10-31T05:50:48;97.47;;;26.57;;
22565;SDS011;11449;51.330;19.378;2022-10-31T05:55:50;178.93;;;26.77;;
22565;SDS011;11449;51.330;19.378;2022-10-31T06:00:55;89.30;;;25.97;;
22565;SDS011;11449;51.330;19.378;2022-10-31T06:05:56;297.98;;;32.42;;
22565;SDS011;11449;51.330;19.378;2022-10-31T06:11:01;125.53;;;30.10;;
22565;SDS011;11449;51.330;19.378;2022-10-31T06:16:21;75.47;;;35.63;;
22565;SDS011;11449;51.330;19.378;2022-10-31T06:21:24;67.22;;;29.35;;
22565;SDS011;11449;51.330;19.378;2022-10-31T06:26:25;84.28;;;30.23;;
22565;SDS011;11449;51.330;19.378;2022-10-31T06:31:27;53.17;;;24.37;;
22565;SDS011;11449;51.330;19.378;2022-10-31T06:36:28;58.13;;;25.52;;
22565;SDS011;11449;51.330;19.378;2022-10-31T06:41:29;76.00;;;31.27;;
22565;SDS011;11449;51.330;19.378;2022-10-31T06:46:31;78.17;;;36.17;;
22565;SDS011;11449;51.330;19.378;2022-10-31T06:51:36;77.82;;;35.05;;
22565;SDS011;11449;51.330;19.378;2022-10-31T06:56:37;65.60;;;31.97;;
22565;SDS011;11449;51.330;19.378;2022-10-31T07:01:39;73.30;;;34.95;;
22565;SDS011;11449;51.330;19.378;2022-10-31T07:06:41;70.40;;;34.98;;
22565;SDS011;11449;51.330;19.378;2022-10-31T07:11:42;70.83;;;32.83;;
22565;SDS011;11449;51.330;19.378;2022-10-31T07:16:43;50.55;;;26.55;;
22565;SDS011;11449;51.330;19.378;2022-10-31T07:21:46;51.70;;;27.30;;
22565;SDS011;11449;51.330;19.378;2022-10-31T07:26:48;76.37;;;37.78;;
22565;SDS011;11449;51.330;19.378;2022-10-31T07:31:50;66.12;;;32.93;;
22565;SDS011;11449;51.330;19.378;2022-10-31T07:36:53;68.65;;;34.53;;
22565;SDS011;11449;51.330;19.378;2022-10-31T07:41:57;65.08;;;31.55;;
22565;SDS011;11449;51.330;19.378;2022-10-31T07:46:57;48.68;;;27.67;;
22565;SDS011;11449;51.330;19.378;2022-10-31T07:52:18;42.50;;;22.80;;
22565;SDS011;11449;51.330;19.378;2022-10-31T07:57:38;42.20;;;21.80;;
22565;SDS011;11449;51.330;19.378;2022-10-31T08:02:40;42.33;;;20.82;;
22565;SDS011;11449;51.330;19.378;2022-10-31T08:07:46;41.37;;;21.45;;
22565;SDS011;11449;51.330;19.378;2022-10-31T08:12:54;41.15;;;20.80;;
22565;SDS011;11449;51.330;19.378;2022-10-31T08:17:51;41.98;;;20.72;;
22565;SDS011;11449;51.330;19.378;2022-10-31T08:23:00;32.50;;;17.52;;
22565;SDS011;11449;51.330;19.378;2022-10-31T08:28:02;44.08;;;21.45;;
22565;SDS011;11449;51.330;19.378;2022-10-31T08:33:04;49.13;;;19.48;;
22565;SDS011;11449;51.330;19.378;2022-10-31T08:38:22;37.67;;;20.55;;
22565;SDS011;11449;51.330;19.378;2022-10-31T08:43:24;38.13;;;20.82;;
22565;SDS011;11449;51.330;19.378;2022-10-31T08:48:25;32.10;;;19.80;;
22565;SDS011;11449;51.330;19.378;2022-10-31T08:53:26;32.03;;;18.23;;
22565;SDS011;11449;51.330;19.378;2022-10-31T08:58:29;35.65;;;19.05;;
22565;SDS011;11449;51.330;19.378;2022-10-31T09:03:31;26.10;;;15.43;;
22565;SDS011;11449;51.330;19.378;2022-10-31T09:08:34;27.30;;;16.85;;
22565;SDS011;11449;51.330;19.378;2022-10-31T09:13:36;28.87;;;16.57;;
22565;SDS011;11449;51.330;19.378;2022-10-31T09:18:38;30.80;;;16.65;;
22565;SDS011;11449;51.330;19.378;2022-10-31T09:23:39;28.83;;;15.65;;
22565;SDS011;11449;51.330;19.378;2022-10-31T09:28:41;35.90;;;15.90;;
22565;SDS011;11449;51.330;19.378;2022-10-31T09:33:44;30.32;;;15.45;;
22565;SDS011;11449;51.330;19.378;2022-10-31T09:38:46;27.02;;;15.58;;
22565;SDS011;11449;51.330;19.378;2022-10-31T09:44:04;21.48;;;13.83;;
22565;SDS011;11449;51.330;19.378;2022-10-31T09:54:32;30.00;;;16.10;;
22565;SDS011;11449;51.330;19.378;2022-10-31T09:59:35;50.00;;;16.55;;
22565;SDS011;11449;51.330;19.378;2022-10-31T10:09:41;438.22;;;264.38;;
22565;SDS011;11449;51.330;19.378;2022-10-31T10:15:16;446.65;;;267.82;;
22565;SDS011;11449;51.330;19.378;2022-10-31T10:25:15;305.43;;;276.77;;
22565;SDS011;11449;51.330;19.378;2022-10-31T10:30:20;150.60;;;134.03;;
22565;SDS011;11449;51.330;19.378;2022-10-31T10:45:42;434.52;;;290.38;;
22565;SDS011;11449;51.330;19.378;2022-10-31T10:51:03;429.68;;;305.92;;
22565;SDS011;11449;51.330;19.378;2022-10-31T10:56:16;444.70;;;297.80;;
22565;SDS011;11449;51.330;19.378;2022-10-31T11:01:18;461.68;;;341.90;;
22565;SDS011;11449;51.330;19.378;2022-10-31T11:06:20;456.55;;;331.47;;
22565;SDS011;11449;51.330;19.378;2022-10-31T11:11:26;453.35;;;314.82;;
22565;SDS011;11449;51.330;19.378;2022-10-31T11:21:29;438.57;;;311.02;;
22565;SDS011;11449;51.330;19.378;2022-10-31T11:26:30;432.02;;;314.48;;
22565;SDS011;11449;51.330;19.378;2022-10-31T11:31:32;442.18;;;335.95;;
22565;SDS011;11449;51.330;19.378;2022-10-31T11:36:34;460.32;;;340.27;;
22565;SDS011;11449;51.330;19.378;2022-10-31T11:41:36;97.30;;;55.10;;
22565;SDS011;11449;51.330;19.378;2022-10-31T11:46:54;106.25;;;63.17;;
22565;SDS011;11449;51.330;19.378;2022-10-31T11:51:52;74.17;;;16.10;;
22565;SDS011;11449;51.330;19.378;2022-10-31T11:56:54;38.60;;;12.85;;
22565;SDS011;11449;51.330;19.378;2022-10-31T12:01:56;43.45;;;13.60;;
22565;SDS011;11449;51.330;19.378;2022-10-31T12:06:57;43.13;;;13.13;;
22565;SDS011;11449;51.330;19.378;2022-10-31T12:22:23;73.52;;;35.28;;
22565;SDS011;11449;51.330;19.378;2022-10-31T12:48:08;31.60;;;11.08;;
22565;SDS011;11449;51.330;19.378;2022-10-31T12:59:14;60.95;;;15.50;;
22565;SDS011;11449;51.330;19.378;2022-10-31T13:03:26;49.85;;;13.90;;
22565;SDS011;11449;51.330;19.378;2022-10-31T13:08:36;45.90;;;13.25;;
22565;SDS011;11449;51.330;19.378;2022-10-31T13:13:38;80.20;;;22.50;;
22565;SDS011;11449;51.330;19.378;2022-10-31T13:18:42;47.60;;;16.97;;
22565;SDS011;11449;51.330;19.378;2022-10-31T13:23:42;62.88;;;14.55;;
22565;SDS011;11449;51.330;19.378;2022-10-31T13:28:46;169.90;;;129.05;;
22565;SDS011;11449;51.330;19.378;2022-10-31T13:33:48;316.02;;;267.73;;
22565;SDS011;11449;51.330;19.378;2022-10-31T13:38:54;407.38;;;281.85;;
22565;SDS011;11449;51.330;19.378;2022-10-31T13:48:55;76.37;;;18.23;;
22565;SDS011;11449;51.330;19.378;2022-10-31T13:54:05;75.25;;;15.65;;
22565;SDS011;11449;51.330;19.378;2022-10-31T14:04:16;60.58;;;15.65;;
22565;SDS011;11449;51.330;19.378;2022-10-31T14:09:23;69.10;;;15.98;;
22565;SDS011;11449;51.330;19.378;2022-10-31T14:14:21;88.03;;;18.27;;
22565;SDS011;11449;51.330;19.378;2022-10-31T14:19:23;79.40;;;17.87;;
22565;SDS011;11449;51.330;19.378;2022-10-31T14:29:29;95.60;;;22.62;;
22565;SDS011;11449;51.330;19.378;2022-10-31T14:34:34;86.90;;;19.77;;
22565;SDS011;11449;51.330;19.378;2022-10-31T14:44:49;81.10;;;21.82;;
22565;SDS011;11449;51.330;19.378;2022-10-31T14:49:50;132.60;;;37.23;;
22565;SDS011;11449;51.330;19.378;2022-10-31T14:54:53;94.55;;;26.55;;
22565;SDS011;11449;51.330;19.378;2022-10-31T14:59:56;109.72;;;32.23;;
22565;SDS011;11449;51.330;19.378;2022-10-31T15:04:58;101.40;;;29.92;;
22565;SDS011;11449;51.330;19.378;2022-10-31T15:10:00;72.00;;;21.20;;
22565;SDS011;11449;51.330;19.378;2022-10-31T15:15:14;64.40;;;20.05;;
22565;SDS011;11449;51.330;19.378;2022-10-31T15:20:22;70.57;;;21.30;;
22565;SDS011;11449;51.330;19.378;2022-10-31T15:25:25;95.55;;;32.00;;
22565;SDS011;11449;51.330;19.378;2022-10-31T15:30:28;57.70;;;26.37;;
22565;SDS011;11449;51.330;19.378;2022-10-31T15:35:30;61.33;;;27.15;;
22565;SDS011;11449;51.330;19.378;2022-10-31T15:40:31;54.50;;;19.82;;
22565;SDS011;11449;51.330;19.378;2022-10-31T15:45:32;42.00;;;15.53;;
22565;SDS011;11449;51.330;19.378;2022-10-31T15:50:40;46.83;;;16.40;;
22565;SDS011;11449;51.330;19.378;2022-10-31T15:55:49;379.50;;;184.75;;
22565;SDS011;11449;51.330;19.378;2022-10-31T16:00:57;437.72;;;194.87;;
22565;SDS011;11449;51.330;19.378;2022-10-31T16:05:59;51.48;;;19.98;;
22565;SDS011;11449;51.330;19.378;2022-10-31T16:16:14;472.17;;;210.20;;
22565;SDS011;11449;51.330;19.378;2022-10-31T16:21:22;541.48;;;224.37;;
22565;SDS011;11449;51.330;19.378;2022-10-31T16:26:19;519.92;;;223.07;;
22565;SDS011;11449;51.330;19.378;2022-10-31T16:31:27;569.67;;;231.82;;
22565;SDS011;11449;51.330;19.378;2022-10-31T16:36:30;545.02;;;226.70;;
22565;SDS011;11449;51.330;19.378;2022-10-31T16:41:34;534.85;;;225.93;;
22565;SDS011;11449;51.330;19.378;2022-10-31T16:46:35;488.15;;;200.10;;
22565;SDS011;11449;51.330;19.378;2022-10-31T16:51:36;458.90;;;196.75;;
22565;SDS011;11449;51.330;19.378;2022-10-31T16:56:37;560.75;;;223.30;;
22565;SDS011;11449;51.330;19.378;2022-10-31T17:01:39;655.52;;;267.37;;
22565;SDS011;11449;51.330;19.378;2022-10-31T17:06:41;685.73;;;278.92;;
22565;SDS011;11449;51.330;19.378;2022-10-31T17:11:47;543.63;;;222.12;;
22565;SDS011;11449;51.330;19.378;2022-10-31T17:16:45;552.20;;;235.08;;
22565;SDS011;11449;51.330;19.378;2022-10-31T17:21:46;573.40;;;243.33;;
22565;SDS011;11449;51.330;19.378;2022-10-31T17:26:47;532.83;;;199.42;;
22565;SDS011;11449;51.330;19.378;2022-10-31T17:31:48;494.80;;;205.45;;
22565;SDS011;11449;51.330;19.378;2022-10-31T17:36:49;473.52;;;180.45;;
22565;SDS011;11449;51.330;19.378;2022-10-31T17:41:51;467.03;;;187.00;;
22565;SDS011;11449;51.330;19.378;2022-10-31T17:46:52;531.78;;;198.85;;
22565;SDS011;11449;51.330;19.378;2022-10-31T17:51:53;457.25;;;203.85;;
22565;SDS011;11449;51.330;19.378;2022-10-31T17:56:54;477.43;;;217.93;;
22565;SDS011;11449;51.330;19.378;2022-10-31T18:01:55;428.18;;;197.30;;
22565;SDS011;11449;51.330;19.378;2022-10-31T18:06:56;490.50;;;204.20;;
22565;SDS011;11449;51.330;19.378;2022-10-31T18:11:57;432.32;;;192.90;;
22565;SDS011;11449;51.330;19.378;2022-10-31T18:16:58;419.88;;;198.00;;
22565;SDS011;11449;51.330;19.378;2022-10-31T18:21:59;238.87;;;97.20;;
22565;SDS011;11449;51.330;19.378;2022-10-31T18:27:00;280.32;;;140.55;;
22565;SDS011;11449;51.330;19.378;2022-10-31T18:32:01;524.80;;;203.80;;
22565;SDS011;11449;51.330;19.378;2022-10-31T18:37:02;439.63;;;182.05;;
22565;SDS011;11449;51.330;19.378;2022-10-31T18:42:03;588.90;;;231.85;;
22565;SDS011;11449;51.330;19.378;2022-10-31T18:47:04;762.42;;;244.00;;
22565;SDS011;11449;51.330;19.378;2022-10-31T18:52:05;627.47;;;228.15;;
22565;SDS011;11449;51.330;19.378;2022-10-31T18:57:06;573.15;;;176.70;;
22565;SDS011;11449;51.330;19.378;2022-10-31T19:02:08;550.95;;;203.65;;
22565;SDS011;11449;51.330;19.378;2022-10-31T19:07:09;456.70;;;142.62;;
22565;SDS011;11449;51.330;19.378;2022-10-31T19:12:10;369.15;;;137.72;;
22565;SDS011;11449;51.330;19.378;2022-10-31T19:17:11;485.10;;;117.15;;
22565;SDS011;11449;51.330;19.378;2022-10-31T19:22:12;342.98;;;108.57;;
22565;SDS011;11449;51.330;19.378;2022-10-31T19:27:13;548.40;;;141.75;;
22565;SDS011;11449;51.330;19.378;2022-10-31T19:32:14;413.30;;;129.03;;
22565;SDS011;11449;51.330;19.378;2022-10-31T19:37:15;409.67;;;119.02;;
22565;SDS011;11449;51.330;19.378;2022-10-31T19:42:16;487.25;;;118.47;;
22565;SDS011;11449;51.330;19.378;2022-10-31T19:47:17;472.40;;;113.65;;
22565;SDS011;11449;51.330;19.378;2022-10-31T19:52:18;499.27;;;120.35;;
22565;SDS011;11449;51.330;19.378;2022-10-31T19:57:19;463.18;;;178.00;;
22565;SDS011;11449;51.330;19.378;2022-10-31T20:02:20;503.05;;;195.38;;
22565;SDS011;11449;51.330;19.378;2022-10-31T20:07:21;654.33;;;208.30;;
22565;SDS011;11449;51.330;19.378;2022-10-31T20:12:22;513.77;;;209.40;;
22565;SDS011;11449;51.330;19.378;2022-10-31T20:17:23;564.58;;;227.03;;
22565;SDS011;11449;51.330;19.378;2022-10-31T20:22:24;592.92;;;228.05;;
22565;SDS011;11449;51.330;19.378;2022-10-31T20:27:25;459.52;;;199.70;;
22565;SDS011;11449;51.330;19.378;2022-10-31T20:32:26;475.77;;;201.32;;
22565;SDS011;11449;51.330;19.378;2022-10-31T20:37:27;527.15;;;202.62;;
22565;SDS011;11449;51.330;19.378;2022-10-31T20:42:28;486.88;;;185.57;;
22565;SDS011;11449;51.330;19.378;2022-10-31T20:47:29;442.45;;;131.97;;
22565;SDS011;11449;51.330;19.378;2022-10-31T20:52:30;718.92;;;251.15;;
22565;SDS011;11449;51.330;19.378;2022-10-31T20:57:31;224.58;;;77.20;;
22565;SDS011;11449;51.330;19.378;2022-10-31T21:02:32;803.12;;;265.82;;
22565;SDS011;11449;51.330;19.378;2022-10-31T21:07:33;193.78;;;73.65;;
22565;SDS011;11449;51.330;19.378;2022-10-31T21:12:34;142.25;;;57.98;;
22565;SDS011;11449;51.330;19.378;2022-10-31T21:17:35;151.72;;;62.75;;
22565;SDS011;11449;51.330;19.378;2022-10-31T21:22:36;237.23;;;89.32;;
22565;SDS011;11449;51.330;19.378;2022-10-31T21:27:37;172.78;;;69.50;;
22565;SDS011;11449;51.330;19.378;2022-10-31T21:32:38;161.82;;;62.60;;
22565;SDS011;11449;51.330;19.378;2022-10-31T21:37:39;141.88;;;59.75;;
22565;SDS011;11449;51.330;19.378;2022-10-31T21:42:40;101.18;;;41.95;;
22565;SDS011;11449;51.330;19.378;2022-10-31T21:47:41;108.80;;;45.10;;
22565;SDS011;11449;51.330;19.378;2022-10-31T21:52:42;91.75;;;40.38;;
22565;SDS011;11449;51.330;19.378;2022-10-31T21:57:43;94.00;;;38.88;;
22565;SDS011;11449;51.330;19.378;2022-10-31T22:02:44;94.67;;;38.35;;
22565;SDS011;11449;51.330;19.378;2022-10-31T22:07:45;84.30;;;36.17;;
22565;SDS011;11449;51.330;19.378;2022-10-31T22:12:46;79.50;;;36.42;;
22565;SDS011;11449;51.330;19.378;2022-10-31T22:17:47;81.15;;;36.42;;
22565;SDS011;11449;51.330;19.378;2022-10-31T22:22:48;85.80;;;42.23;;
22565;SDS011;11449;51.330;19.378;2022-10-31T22:27:50;458.12;;;123.20;;
22565;SDS011;11449;51.330;19.378;2022-10-31T22:32:51;133.37;;;49.50;;
22565;SDS011;11449;51.330;19.378;2022-10-31T22:37:52;508.77;;;108.22;;
22565;SDS011;11449;51.330;19.378;2022-10-31T22:42:53;111.50;;;43.63;;
22565;SDS011;11449;51.330;19.378;2022-10-31T22:47:54;123.18;;;45.15;;
22565;SDS011;11449;51.330;19.378;2022-10-31T22:52:55;465.95;;;112.28;;
22565;SDS011;11449;51.330;19.378;2022-10-31T22:57:56;256.20;;;69.42;;
22565;SDS011;11449;51.330;19.378;2022-10-31T23:02:57;199.10;;;55.23;;
22565;SDS011;11449;51.330;19.378;2022-10-31T23:07:58;194.07;;;60.80;;
22565;SDS011;11449;51.330;19.378;2022-10-31T23:13:00;86.42;;;38.95;;
22565;SDS011;11449;51.330;19.378;2022-10-31T23:33:22;80.20;;;35.78;;
22565;SDS011;11449;51.330;19.378;2022-10-31T23:38:23;114.30;;;49.00;;
22565;SDS011;11449;51.330;19.378;2022-10-31T23:43:24;107.65;;;38.35;;
22565;SDS011;11449;51.330;19.378;2022-10-31T23:48:24;115.37;;;40.35;;
22565;SDS011;11449;51.330;19.378;2022-10-31T23:53:25;146.35;;;45.85;;
22565;SDS011;11449;51.330;19.378;2022-10-31T23:58:26;130.75;;;42.78;;
